Sumbawanga Airport

Airport
ICAO code: 
HTSU
IATA Code: 
SUT
Summary
ICAO Region: 
AFI
Territory: 
Location: 
Sumbawanga, Rukwa Region
Serving: 
Sumbawanga
Elevation: 
5920 ft
Coordinates: 
Aerial View: 
7° 56' 56.004" S, 31° 36' 37.008" E
Metar
Observation
HTSU 162200Z 00000KT 9999 FEW017 BKN070 16/13 Q1023
Station
SUMBAWANGA
Date/Time
2022-01-16 22:00:00
Wind direction
Wind speed
00 kts
Lowest cloud amount
few clouds
Temperature
16°C
Dew point
13°C
Humidity
82%
QNH
1023 hPa
Weather condition
n/a

Sumbawanga Airport is an airport in western Tanzania serving the town of Sumbawanga in Rukwa Region.

Climatology

Subtropical highland climate (Köppen climate classification Cwb)

Airport map: 
Aerial View: 

SKYbrary Partners:

Safety knowledge contributed by: